createdAt,value
2018-02-18T00:01:42.373Z,97.70
2018-02-18T00:04:11.253Z,97.70
2018-02-18T00:06:41.384Z,97.80
2018-02-18T00:09:09.702Z,97.90
2018-02-18T00:11:42.230Z,98.10
2018-02-18T00:14:14.809Z,98.10
2018-02-18T00:16:42.850Z,98.30
2018-02-18T00:19:11.866Z,98.30
2018-02-18T00:21:44.494Z,98.30
2018-02-18T00:24:14.474Z,98.30
2018-02-18T00:26:45.201Z,98.50
2018-02-18T00:29:15.054Z,98.60
2018-02-18T00:31:47.520Z,98.60
2018-02-18T00:34:16.469Z,98.70
2018-02-18T00:36:44.517Z,98.70
2018-02-18T00:39:14.441Z,98.70
2018-02-18T00:41:43.473Z,98.60
2018-02-18T00:44:12.282Z,98.80
2018-02-18T00:46:43.026Z,98.90
2018-02-18T00:49:11.061Z,98.80
2018-02-18T00:51:40.858Z,98.90
2018-02-18T00:54:10.046Z,98.80
2018-02-18T00:56:41.361Z,99.20
2018-02-18T00:59:16.901Z,98.90
2018-02-18T01:01:45.290Z,98.90
2018-02-18T01:04:13.553Z,98.90
2018-02-18T01:06:43.533Z,98.90
2018-02-18T01:09:20.940Z,98.80
2018-02-18T01:11:53.698Z,98.80
2018-02-18T01:14:21.750Z,98.70
2018-02-18T01:16:49.833Z,98.60
2018-02-18T01:19:19.777Z,98.50
2018-02-18T01:21:56.473Z,98.50
2018-02-18T01:24:24.525Z,98.50
2018-02-18T01:26:56.025Z,98.50
2018-02-18T01:29:30.889Z,98.50
2018-02-18T01:31:58.949Z,98.70
2018-02-18T01:34:27.962Z,98.70
2018-02-18T01:36:56.013Z,98.70
2018-02-18T01:39:26.809Z,98.80
2018-02-18T01:41:57.389Z,98.80
2018-02-18T01:44:25.449Z,98.80
2018-02-18T01:47:02.392Z,98.80
2018-02-18T01:49:30.433Z,98.70
2018-02-18T01:51:59.481Z,98.80
2018-02-18T01:54:29.845Z,98.80
2018-02-18T01:56:57.897Z,98.80
2018-02-18T01:59:27.759Z,98.70
2018-02-18T02:01:57.133Z,98.60
2018-02-18T02:04:26.974Z,98.60
2018-02-18T02:06:55.005Z,98.50
2018-02-18T02:09:27.676Z,98.40
2018-02-18T02:12:00.000Z,98.30
2018-02-18T02:14:32.701Z,98.30
2018-02-18T02:17:08.445Z,98.40
2018-02-18T02:19:44.077Z,98.40
2018-02-18T02:22:12.900Z,98.40
2018-02-18T02:24:42.797Z,98.50
2018-02-18T02:27:12.318Z,98.50
2018-02-18T02:29:41.145Z,98.40
2018-02-18T02:32:16.213Z,98.50
2018-02-18T02:34:44.978Z,98.30
2018-02-18T02:37:16.746Z,98.20
2018-02-18T02:39:45.406Z,98.30
2018-02-18T02:42:15.596Z,98.40
2018-02-18T02:44:45.313Z,98.30
2018-02-18T02:47:14.377Z,98.00
2018-02-18T02:49:45.198Z,98.00
2018-02-18T02:52:18.364Z,98.00
2018-02-18T02:54:49.077Z,98.10
2018-02-18T02:57:18.484Z,98.00
2018-02-18T02:59:53.626Z,98.10
2018-02-18T03:02:21.697Z,98.10
2018-02-18T03:04:49.953Z,98.00
2018-02-18T03:07:19.980Z,98.10
2018-02-18T03:09:56.293Z,98.30
2018-02-18T03:12:35.814Z,98.60
2018-02-18T03:15:05.825Z,98.70
2018-02-18T03:17:39.641Z,99.10
2018-02-18T03:20:09.761Z,99.50
2018-02-18T03:22:38.721Z,99.60
2018-02-18T03:25:08.684Z,99.50
2018-02-18T03:27:37.512Z,99.00
2018-02-18T03:30:07.474Z,99.00
2018-02-18T03:32:37.437Z,98.60
2018-02-18T03:35:08.692Z,98.60
2018-02-18T03:37:38.677Z,98.70
2018-02-18T03:40:07.653Z,98.60
2018-02-18T03:42:41.597Z,98.60
2018-02-18T03:45:10.637Z,98.60
2018-02-18T03:47:42.488Z,98.60
2018-02-18T03:50:10.557Z,98.80
2018-02-18T03:52:43.201Z,99.00
2018-02-18T03:55:11.312Z,99.10
2018-02-18T03:57:44.773Z,99.20
2018-02-18T04:00:12.852Z,99.20
2018-02-18T04:02:40.918Z,99.30
2018-02-18T04:05:12.021Z,99.40
2018-02-18T04:07:41.856Z,99.60
2018-02-18T04:10:13.708Z,99.60
2018-02-18T04:12:43.689Z,99.60
2018-02-18T04:15:11.748Z,99.60
2018-02-18T04:17:39.784Z,99.70
2018-02-18T04:20:07.856Z,99.60
2018-02-18T04:22:40.520Z,99.70
2018-02-18T04:25:09.513Z,99.60
2018-02-18T04:27:37.888Z,99.60
2018-02-18T04:30:05.958Z,99.60
2018-02-18T04:32:37.684Z,99.60
2018-02-18T04:35:06.700Z,99.70
2018-02-18T04:37:35.673Z,99.70
2018-02-18T04:40:04.489Z,99.80
2018-02-18T04:42:33.444Z,99.70
2018-02-18T04:45:01.472Z,99.90
2018-02-18T04:47:32.728Z,99.90
2018-02-18T04:50:00.796Z,99.90
2018-02-18T04:52:28.912Z,99.90
2018-02-18T04:54:57.716Z,99.90
2018-02-18T04:57:29.388Z,99.90
2018-02-18T05:00:01.255Z,99.90
2018-02-18T05:02:30.204Z,99.90
2018-02-18T05:05:02.112Z,99.90
2018-02-18T05:07:30.136Z,99.90
2018-02-18T05:10:00.076Z,99.90
2018-02-18T05:12:42.140Z,99.90
2018-02-18T05:15:11.132Z,99.90
2018-02-18T05:17:43.768Z,99.70
2018-02-18T05:20:18.148Z,99.90
2018-02-18T05:22:47.943Z,99.90
2018-02-18T05:25:16.032Z,99.90
2018-02-18T05:27:44.076Z,99.90
2018-02-18T05:30:12.139Z,99.90
2018-02-18T05:32:43.444Z,99.90
2018-02-18T05:35:12.404Z,99.90
2018-02-18T05:37:45.824Z,99.90
2018-02-18T05:40:19.624Z,99.80
2018-02-18T05:42:50.944Z,99.80
2018-02-18T05:45:30.803Z,99.70
2018-02-18T05:48:07.236Z,99.60
2018-02-18T05:50:37.184Z,99.50
2018-02-18T05:53:07.124Z,99.50
2018-02-18T05:55:43.323Z,99.50
2018-02-18T06:01:12.941Z,99.70
2018-02-18T06:03:43.692Z,99.80
2018-02-18T06:06:14.864Z,99.90
2018-02-18T06:08:43.696Z,99.80
2018-02-18T06:11:17.550Z,99.70
2018-02-18T06:13:45.659Z,99.70
2018-02-18T06:19:28.629Z,99.70
2018-02-18T06:21:56.676Z,99.40
2018-02-18T06:24:29.964Z,99.30
2018-02-18T06:27:01.725Z,99.20
2018-02-18T06:29:31.739Z,99.20
2018-02-18T06:32:03.140Z,99.20
2018-02-18T06:34:43.460Z,99.20
2018-02-18T06:37:15.271Z,99.20
2018-02-18T06:39:43.536Z,99.20
2018-02-18T06:42:17.264Z,99.20
2018-02-18T06:44:47.743Z,99.30
2018-02-18T06:47:18.775Z,99.30
2018-02-18T06:49:46.871Z,99.30
2018-02-18T06:52:33.572Z,99.30
2018-02-18T06:55:09.787Z,99.40
2018-02-18T06:57:46.480Z,99.50
2018-02-18T07:00:37.398Z,99.50
2018-02-18T07:03:10.444Z,99.40
2018-02-18T07:05:42.356Z,99.40
2018-02-18T07:08:11.483Z,99.50
2018-02-18T07:10:43.071Z,99.50
2018-02-18T07:13:17.496Z,99.50
2018-02-18T07:15:45.584Z,99.70
2018-02-18T07:18:13.683Z,99.60
2018-02-18T07:20:46.131Z,99.50
2018-02-18T07:23:17.863Z,99.50
2018-02-18T07:25:51.356Z,99.40
2018-02-18T07:28:21.342Z,99.00
2018-02-18T07:30:50.143Z,98.00
2018-02-18T07:33:22.983Z,98.00
2018-02-18T07:35:55.667Z,98.20
2018-02-18T07:38:28.271Z,98.70
2018-02-18T07:41:08.803Z,98.80
2018-02-18T07:43:36.855Z,98.80
2018-02-18T07:46:05.811Z,99.00
2018-02-18T07:48:33.835Z,99.20
2018-02-18T07:51:01.911Z,99.70
2018-02-18T07:53:29.928Z,99.80
2018-02-18T07:55:58.047Z,99.40
2018-02-18T07:58:26.083Z,98.30
2018-02-18T08:00:59.407Z,97.70
2018-02-18T08:03:27.621Z,97.60
2018-02-18T08:05:59.456Z,97.20
2018-02-18T08:08:33.203Z,97.00
2018-02-18T08:11:04.891Z,96.90
2018-02-18T08:13:33.855Z,96.80
2018-02-18T08:16:01.903Z,96.00
2018-02-18T08:18:32.601Z,96.60
2018-02-18T08:21:04.363Z,96.60
2018-02-18T08:23:33.275Z,96.60
2018-02-18T08:26:20.263Z,96.60
2018-02-18T08:28:50.059Z,97.20
2018-02-18T08:31:21.418Z,97.10
2018-02-18T08:33:57.781Z,96.90
2018-02-18T08:36:30.802Z,96.70
2018-02-18T08:38:59.623Z,96.80
2018-02-18T08:41:28.535Z,96.70
2018-02-18T08:43:56.575Z,97.00
2018-02-18T08:46:36.255Z,96.50
2018-02-18T08:49:04.355Z,97.10
2018-02-18T08:51:33.195Z,97.30
2018-02-18T08:54:05.099Z,97.30
2018-02-18T08:56:33.919Z,95.50
2018-02-18T08:59:07.583Z,95.50
2018-02-18T09:01:38.298Z,96.70
2018-02-18T09:04:07.287Z,96.70
2018-02-18T09:06:41.173Z,96.30
2018-02-18T09:09:10.183Z,95.60
2018-02-18T09:11:43.684Z,94.10
2018-02-18T09:14:11.734Z,93.20
2018-02-18T09:16:41.672Z,93.70
2018-02-18T09:19:11.615Z,94.30
2018-02-18T09:21:46.047Z,93.20
2018-02-18T09:24:15.028Z,93.20
2018-02-18T09:26:45.759Z,90.80
2018-02-18T09:29:15.448Z,90.20
2018-02-18T09:31:43.471Z,90.10
2018-02-18T09:34:11.483Z,89.40
2018-02-18T09:36:43.499Z,90.90
2018-02-18T09:39:16.547Z,91.10
2018-02-18T09:41:50.311Z,88.40
2018-02-18T09:44:18.379Z,88.40
2018-02-18T09:46:53.611Z,83.50
2018-02-18T09:49:21.663Z,84.20
2018-02-18T09:51:55.491Z,82.70
2018-02-18T09:54:36.139Z,83.10
2018-02-18T09:57:09.777Z,83.20
2018-02-18T09:59:45.555Z,81.50
2018-02-18T10:02:17.235Z,78.80
2018-02-18T10:04:53.834Z,77.80
2018-02-18T10:07:21.871Z,73.70
2018-02-18T10:09:56.511Z,69.90
2018-02-18T10:12:31.179Z,65.30
2018-02-18T10:15:03.162Z,64.10
2018-02-18T10:17:35.007Z,58.50
2018-02-18T10:20:03.815Z,56.60
2018-02-18T10:22:39.338Z,56.60
2018-02-18T10:25:07.367Z,56.00
2018-02-18T10:27:37.307Z,56.60
2018-02-18T10:30:05.335Z,54.70
2018-02-18T10:32:34.271Z,55.90
2018-02-18T10:35:07.666Z,56.70
2018-02-18T10:37:42.243Z,54.40
2018-02-18T10:40:12.170Z,55.30
2018-02-18T10:42:42.101Z,51.70
2018-02-18T10:45:17.479Z,51.50
2018-02-18T10:47:45.510Z,51.10
2018-02-18T10:50:13.543Z,49.50
2018-02-18T10:52:42.467Z,45.50
2018-02-18T10:55:10.491Z,44.90
2018-02-18T10:57:39.318Z,45.40
2018-02-18T11:00:07.330Z,45.40
2018-02-18T11:02:37.838Z,49.90
2018-02-18T11:05:07.026Z,49.80
2018-02-18T11:07:38.199Z,50.80
2018-02-18T11:10:07.130Z,50.30
2018-02-18T11:12:35.162Z,50.60
2018-02-18T11:15:06.630Z,49.80
2018-02-18T11:17:35.435Z,48.60
2018-02-18T11:20:03.470Z,48.50
2018-02-18T11:22:35.214Z,51.20
2018-02-18T11:25:03.238Z,50.40
2018-02-18T11:27:39.802Z,44.80
2018-02-18T11:30:13.566Z,44.80
2018-02-18T11:32:42.497Z,43.50
2018-02-18T11:35:17.866Z,41.30
2018-02-18T11:37:50.182Z,41.30
2018-02-18T11:40:20.090Z,43.30
2018-02-18T11:42:56.272Z,43.80
2018-02-18T11:45:24.426Z,42.30
2018-02-18T11:47:52.462Z,41.60
2018-02-18T11:50:20.587Z,45.70
2018-02-18T11:52:59.910Z,49.40
2018-02-18T11:55:42.586Z,49.30
2018-02-18T11:58:14.108Z,50.40
2018-02-18T12:00:42.106Z,50.40
2018-02-18T12:03:13.678Z,54.20
2018-02-18T12:05:41.710Z,51.20
2018-02-18T12:08:09.751Z,52.00
2018-02-18T12:10:41.058Z,51.80
2018-02-18T12:13:09.058Z,50.60
2018-02-18T12:15:41.641Z,47.30
2018-02-18T12:18:17.094Z,44.60
2018-02-18T12:20:46.049Z,44.50
2018-02-18T12:23:14.089Z,41.90
2018-02-18T12:25:42.130Z,39.80
2018-02-18T12:28:13.798Z,41.20
2018-02-18T12:30:44.394Z,41.00
2018-02-18T12:33:13.377Z,40.90
2018-02-18T12:35:42.378Z,42.10
2018-02-18T12:38:11.358Z,44.00
2018-02-18T12:40:41.405Z,47.30
2018-02-18T12:43:14.838Z,48.30
2018-02-18T12:45:44.794Z,48.00
2018-02-18T12:48:25.566Z,44.50
2018-02-18T12:50:54.625Z,41.60
2018-02-18T12:53:24.658Z,41.50
2018-02-18T12:55:54.585Z,42.00
2018-02-18T12:58:23.393Z,43.60
2018-02-18T13:01:04.566Z,43.60
2018-02-18T13:03:33.457Z,38.10
2018-02-18T13:06:02.382Z,38.00
2018-02-18T13:08:30.429Z,38.50
2018-02-18T13:11:00.434Z,39.40
2018-02-18T13:13:30.394Z,39.20
2018-02-18T13:16:08.477Z,38.20
2018-02-18T13:18:38.460Z,39.90
2018-02-18T13:21:10.507Z,40.80
2018-02-18T13:23:38.550Z,40.80
2018-02-18T13:26:07.882Z,46.50
2018-02-18T13:28:37.986Z,51.90
2018-02-18T13:31:06.022Z,58.30
2018-02-18T13:33:38.542Z,61.80
2018-02-18T13:36:08.541Z,62.10
2018-02-18T13:38:40.045Z,66.90
2018-02-18T13:41:09.301Z,70.60
2018-02-18T13:43:37.317Z,73.00
2018-02-18T13:46:06.278Z,76.80
2018-02-18T13:48:34.327Z,76.70
2018-02-18T13:51:07.065Z,75.00
2018-02-18T13:53:38.921Z,75.60
2018-02-18T13:56:11.161Z,74.80
2018-02-18T13:58:39.385Z,75.20
2018-02-18T14:01:08.621Z,75.90
2018-02-18T14:03:36.790Z,76.80
2018-02-18T14:06:05.935Z,74.80
2018-02-18T14:08:38.206Z,73.10
2018-02-18T14:11:08.305Z,73.60
2018-02-18T14:13:37.222Z,70.80
2018-02-18T14:16:05.357Z,70.50
2018-02-18T14:18:34.209Z,73.10
2018-02-18T14:21:03.445Z,73.30
2018-02-18T14:23:32.713Z,73.00
2018-02-18T14:26:01.826Z,71.20
2018-02-18T14:28:30.949Z,73.60
2018-02-18T14:31:14.072Z,73.80
2018-02-18T14:33:45.225Z,73.70
2018-02-18T14:36:16.933Z,71.60
2018-02-18T14:38:44.981Z,75.60
2018-02-18T14:41:27.017Z,74.20
2018-02-18T14:44:07.685Z,70.60
2018-02-18T14:46:48.341Z,70.40
2018-02-18T14:49:28.189Z,70.40
2018-02-18T14:52:11.557Z,71.20
2018-02-18T14:57:43.229Z,74.90
2018-02-18T15:00:11.259Z,75.30
2018-02-18T15:02:40.198Z,77.80
2018-02-18T15:05:08.217Z,77.20
2018-02-18T15:07:37.201Z,77.30
2018-02-18T15:10:05.238Z,75.20
2018-02-18T15:12:35.189Z,76.20
2018-02-18T15:15:04.160Z,74.20
2018-02-18T15:17:36.134Z,73.50
2018-02-18T15:20:05.045Z,75.30
2018-02-18T15:22:37.233Z,74.80
2018-02-18T15:25:11.908Z,72.90
2018-02-18T15:27:40.833Z,72.90
2018-02-18T15:30:16.429Z,66.50
2018-02-18T15:32:56.081Z,66.40
2018-02-18T15:35:30.957Z,68.70
2018-02-18T15:37:59.748Z,70.30
2018-02-18T15:40:29.554Z,71.10
2018-02-18T15:42:57.669Z,71.00
2018-02-18T15:45:26.837Z,73.00
2018-02-18T15:47:56.708Z,78.10
2018-02-18T15:50:39.889Z,78.10
2018-02-18T15:53:29.157Z,81.20
2018-02-18T15:56:02.881Z,84.30
2018-02-18T15:58:31.812Z,86.30
2018-02-18T16:00:59.941Z,88.10
2018-02-18T16:03:28.197Z,89.60
2018-02-18T16:05:58.209Z,90.10
2018-02-18T16:08:26.373Z,90.50
2018-02-18T16:10:56.469Z,90.70
2018-02-18T16:13:28.553Z,90.80
2018-02-18T16:15:56.701Z,90.80
2018-02-18T16:18:39.957Z,90.90
2018-02-18T16:21:18.094Z,91.10
2018-02-18T16:23:46.102Z,91.30
2018-02-18T16:26:18.049Z,91.60
2018-02-18T16:28:46.085Z,91.60
2018-02-18T16:31:16.096Z,92.00
2018-02-18T16:33:52.304Z,92.10
2018-02-18T16:36:41.054Z,92.00
2018-02-18T16:39:26.881Z,91.70
2018-02-18T16:41:56.932Z,91.60
2018-02-18T16:44:28.281Z,92.10
2018-02-18T16:47:01.124Z,92.20
2018-02-18T16:49:29.925Z,92.60
2018-02-18T16:52:01.237Z,92.70
2018-02-18T16:54:33.514Z,92.70
2018-02-18T16:57:15.833Z,92.80
2018-02-18T16:59:57.793Z,93.10
2018-02-18T17:02:26.249Z,93.00
2018-02-18T17:05:10.985Z,92.90
2018-02-18T17:07:40.037Z,93.00
2018-02-18T17:10:08.061Z,93.00
2018-02-18T17:12:40.661Z,92.90
2018-02-18T17:15:08.689Z,92.80
2018-02-18T17:17:38.660Z,92.80
2018-02-18T17:20:06.685Z,93.00
2018-02-18T17:22:34.717Z,92.90
2018-02-18T17:28:09.685Z,93.20
2018-02-18T17:30:38.489Z,93.30
2018-02-18T17:33:25.717Z,93.20
2018-02-18T17:35:57.241Z,93.30
2018-02-18T17:38:35.885Z,93.50
2018-02-18T17:41:20.473Z,93.50
2018-02-18T17:43:48.529Z,93.60
2018-02-18T17:46:28.753Z,94.00
2018-02-18T17:48:57.540Z,94.50
2018-02-18T17:51:25.577Z,94.50
2018-02-18T17:54:18.380Z,95.10
2018-02-18T17:57:06.570Z,95.30
2018-02-18T17:59:35.557Z,95.30
2018-02-18T18:02:09.321Z,95.30
2018-02-18T18:04:40.549Z,95.50
2018-02-18T18:07:16.249Z,95.40
2018-02-18T18:09:48.877Z,95.70
2018-02-18T18:12:16.928Z,95.60
2018-02-18T18:14:55.817Z,95.90
2018-02-18T18:17:24.761Z,95.90
2018-02-18T18:19:57.241Z,95.70
2018-02-18T18:22:26.197Z,95.60
2018-02-18T18:24:55.289Z,95.50
2018-02-18T18:27:26.089Z,94.90
2018-02-18T18:29:56.073Z,94.90
2018-02-18T18:32:34.409Z,94.80
2018-02-18T18:35:19.129Z,94.80
2018-02-18T18:37:56.259Z,94.50
2018-02-18T18:40:26.197Z,94.30
2018-02-18T18:42:54.237Z,94.10
2018-02-18T18:45:28.664Z,94.20
2018-02-18T18:47:57.600Z,94.20
2018-02-18T18:50:26.389Z,94.20
2018-02-18T18:52:55.203Z,94.00
2018-02-18T18:55:33.633Z,94.00
2018-02-18T18:58:08.561Z,94.20
2018-02-18T19:00:40.545Z,94.10
2018-02-18T19:03:14.953Z,94.30
2018-02-18T19:05:43.873Z,94.20
2018-02-18T19:08:11.909Z,94.40
2018-02-18T19:10:41.872Z,94.40
2018-02-18T19:13:10.858Z,94.30
2018-02-18T19:15:42.281Z,94.10
2018-02-18T19:18:11.181Z,94.20
2018-02-18T19:20:39.205Z,94.30
2018-02-18T19:23:21.829Z,94.40
2018-02-18T19:25:49.853Z,94.50
2018-02-18T19:28:19.649Z,94.80
2018-02-18T19:30:57.625Z,94.80
2018-02-18T19:33:30.857Z,94.70
2018-02-18T19:36:05.257Z,94.60
2018-02-18T19:38:33.337Z,94.60
2018-02-18T19:41:05.648Z,94.70
2018-02-18T19:43:34.949Z,95.20
2018-02-18T19:46:19.744Z,95.00
2018-02-18T19:48:47.845Z,95.10
2018-02-18T19:51:21.029Z,95.10
2018-02-18T19:53:49.064Z,95.10
2018-02-18T19:56:20.645Z,95.00
2018-02-18T19:58:49.585Z,95.00
2018-02-18T20:01:32.842Z,95.00
2018-02-18T20:04:01.805Z,95.00
2018-02-18T20:06:30.753Z,95.00
2018-02-18T20:09:00.817Z,95.00
2018-02-18T20:11:31.521Z,94.90
2018-02-18T20:14:04.608Z,94.90
2018-02-18T20:16:33.645Z,94.90
2018-02-18T20:19:07.396Z,94.90
2018-02-18T20:21:40.077Z,94.90
2018-02-18T20:24:09.093Z,94.80
2018-02-18T20:26:39.094Z,94.90
2018-02-18T20:29:08.084Z,94.90
2018-02-18T20:31:36.888Z,95.00
2018-02-18T20:34:05.688Z,94.90
2018-02-18T20:36:38.624Z,94.90
2018-02-18T20:39:06.668Z,94.80
2018-02-18T20:41:40.281Z,94.80
2018-02-18T20:44:14.118Z,94.80
2018-02-18T20:46:43.112Z,95.10
2018-02-18T20:49:20.256Z,94.70
2018-02-18T20:51:49.276Z,94.60
2018-02-18T20:54:17.312Z,94.80
2018-02-18T20:56:55.664Z,94.90
2018-02-18T20:59:23.688Z,95.10
2018-02-18T21:01:51.740Z,95.30
2018-02-18T21:04:19.813Z,95.40
2018-02-18T21:06:58.132Z,96.10
2018-02-18T21:09:26.892Z,96.40
2018-02-18T21:11:55.924Z,96.30
2018-02-18T21:14:27.673Z,96.50
2018-02-18T21:16:55.724Z,96.70
2018-02-18T21:19:24.680Z,97.00
2018-02-18T21:21:52.736Z,96.90
2018-02-18T21:24:20.784Z,96.80
2018-02-18T21:29:47.812Z,97.20
2018-02-18T21:32:27.163Z,97.10
2018-02-18T21:34:56.096Z,97.10
2018-02-18T21:37:29.712Z,96.90
2018-02-18T21:39:57.772Z,96.80
2018-02-18T21:42:35.660Z,96.70
2018-02-18T21:45:07.603Z,96.70
2018-02-18T21:47:53.684Z,96.60
2018-02-18T21:50:21.780Z,96.60
2018-02-18T21:52:49.807Z,96.70
2018-02-18T21:55:17.856Z,96.80
2018-02-18T21:57:46.663Z,96.60
2018-02-18T22:00:14.720Z,96.60
2018-02-18T22:02:47.031Z,96.60
2018-02-18T22:05:16.032Z,96.70
2018-02-18T22:07:45.080Z,96.90
2018-02-18T22:10:16.436Z,96.70
2018-02-18T22:12:48.320Z,96.60
2018-02-18T22:23:06.968Z,95.90
2018-02-18T22:25:37.928Z,95.80
2018-02-18T22:28:07.873Z,95.70
2018-02-18T22:30:37.866Z,95.90
2018-02-18T22:33:06.675Z,95.90
2018-02-18T22:35:34.758Z,95.90
2018-02-18T22:38:03.036Z,95.80
2018-02-18T22:43:04.891Z,96.20
2018-02-18T22:45:33.848Z,95.80
2018-02-18T22:48:01.908Z,95.90
2018-02-18T22:50:30.943Z,96.30
2018-02-18T22:53:03.286Z,96.40
2018-02-18T22:55:31.380Z,96.60
2018-02-18T22:58:12.517Z,96.60
2018-02-18T23:00:41.524Z,96.50
2018-02-18T23:03:11.411Z,96.50
2018-02-18T23:05:46.191Z,96.40
2018-02-18T23:08:20.363Z,96.50
2018-02-18T23:10:48.416Z,96.50
2018-02-18T23:13:28.084Z,96.90
2018-02-18T23:15:57.228Z,96.70
2018-02-18T23:18:25.507Z,96.50
2018-02-18T23:21:08.647Z,96.90
2018-02-18T23:23:37.603Z,96.80
2018-02-18T23:26:06.627Z,96.80
2018-02-18T23:28:35.723Z,96.70
2018-02-18T23:31:05.716Z,96.70
2018-02-18T23:33:36.700Z,96.60
2018-02-18T23:36:12.184Z,96.40
2018-02-18T23:38:41.179Z,96.50
2018-02-18T23:41:16.839Z,96.40
2018-02-18T23:43:44.891Z,96.40
2018-02-18T23:46:23.187Z,96.20
2018-02-18T23:48:53.808Z,96.20
2018-02-18T23:51:28.535Z,96.30
2018-02-18T23:53:57.595Z,96.10
2018-02-18T23:56:30.444Z,95.90
2018-02-18T23:59:00.517Z,96.00
